createdAt,value
2018-01-17T00:00:21.384Z,986.24
2018-01-17T00:01:21.309Z,986.21
2018-01-17T00:03:14.318Z,986.24
2018-01-17T00:04:14.242Z,986.23
2018-01-17T00:06:07.240Z,986.18
2018-01-17T00:07:07.171Z,986.18
2018-01-17T00:09:00.165Z,986.21
2018-01-17T00:10:00.088Z,986.18
2018-01-17T00:11:53.111Z,986.17
2018-01-17T00:12:53.036Z,986.20
2018-01-17T00:14:46.036Z,986.18
2018-01-17T00:15:45.962Z,986.19
2018-01-17T00:17:38.966Z,986.13
2018-01-17T00:18:38.884Z,986.17
2018-01-17T00:20:31.893Z,986.11
2018-01-17T00:21:31.824Z,986.19
2018-01-17T00:23:24.837Z,986.20
2018-01-17T00:24:24.747Z,986.21
2018-01-17T00:26:17.732Z,986.22
2018-01-17T00:27:17.661Z,986.15
2018-01-17T00:29:10.669Z,986.14
2018-01-17T00:30:10.651Z,986.14
2018-01-17T00:32:03.595Z,986.18
2018-01-17T00:33:03.528Z,986.18
2018-01-17T00:34:56.532Z,986.16
2018-01-17T00:35:56.455Z,986.18
2018-01-17T00:37:49.446Z,986.17
2018-01-17T00:38:49.368Z,986.16
2018-01-17T00:40:42.358Z,986.09
2018-01-17T00:41:42.291Z,986.13
2018-01-17T00:43:35.300Z,986.10
2018-01-17T00:44:35.249Z,986.09
2018-01-17T00:46:28.394Z,986.20
2018-01-17T00:47:28.295Z,986.13
2018-01-17T00:49:21.288Z,986.13
2018-01-17T00:50:21.197Z,986.14
2018-01-17T00:52:14.203Z,986.08
2018-01-17T00:53:14.131Z,986.13
2018-01-17T00:55:07.162Z,986.14
2018-01-17T00:56:07.080Z,986.12
2018-01-17T00:58:00.555Z,986.13
2018-01-17T00:59:00.465Z,986.13
2018-01-17T01:00:53.450Z,986.11
2018-01-17T01:01:53.414Z,986.12
2018-01-17T01:03:46.384Z,986.09
2018-01-17T01:04:46.299Z,986.10
2018-01-17T01:06:39.293Z,986.08
2018-01-17T01:07:39.232Z,986.12
2018-01-17T01:09:32.232Z,986.06
2018-01-17T01:10:32.150Z,986.04
2018-01-17T01:12:25.143Z,986.05
2018-01-17T01:13:25.065Z,986.01
2018-01-17T01:15:18.075Z,986.02
2018-01-17T01:16:17.988Z,986.06
2018-01-17T01:18:11.142Z,986.04
2018-01-17T01:19:11.023Z,986.00
2018-01-17T01:21:04.054Z,986.01
2018-01-17T01:22:03.970Z,985.99
2018-01-17T01:23:56.975Z,985.94
2018-01-17T01:24:57.008Z,985.97
2018-01-17T01:26:50.048Z,985.95
2018-01-17T01:27:49.829Z,985.97
2018-01-17T01:29:42.862Z,985.97
2018-01-17T01:30:42.854Z,986.00
2018-01-17T01:32:35.768Z,985.93
2018-01-17T01:33:35.698Z,985.96
2018-01-17T01:35:28.706Z,985.96
2018-01-17T01:36:28.620Z,985.98
2018-01-17T01:38:21.668Z,986.00
2018-01-17T01:39:21.542Z,985.98
2018-01-17T01:41:14.541Z,986.01
2018-01-17T01:42:14.457Z,986.01
2018-01-17T01:44:07.574Z,986.02
2018-01-17T01:45:07.505Z,985.99
2018-01-17T01:47:00.539Z,985.98
2018-01-17T01:48:00.465Z,985.95
2018-01-17T01:49:53.481Z,985.96
2018-01-17T01:50:53.413Z,986.01
2018-01-17T01:52:46.421Z,986.00
2018-01-17T01:53:46.336Z,986.00
2018-01-17T01:55:39.376Z,985.99
2018-01-17T01:56:39.297Z,985.98
2018-01-17T01:58:32.404Z,986.03
2018-01-17T01:59:32.333Z,985.99
2018-01-17T02:01:25.341Z,986.01
2018-01-17T02:02:25.261Z,985.97
2018-01-17T02:04:18.241Z,985.93
2018-01-17T02:05:18.174Z,985.98
2018-01-17T02:07:11.176Z,985.91
2018-01-17T02:08:11.101Z,985.91
2018-01-17T02:10:04.089Z,985.91
2018-01-17T02:11:04.014Z,985.94
2018-01-17T02:12:57.038Z,985.83
2018-01-17T02:13:56.957Z,985.84
2018-01-17T02:15:49.961Z,985.88
2018-01-17T02:16:49.894Z,985.88
2018-01-17T02:18:42.997Z,985.85
2018-01-17T02:19:42.847Z,985.91
2018-01-17T02:21:35.880Z,985.87
2018-01-17T02:22:35.798Z,985.84
2018-01-17T02:24:28.783Z,985.86
2018-01-17T02:25:28.717Z,985.86
2018-01-17T02:27:21.724Z,985.92
2018-01-17T02:28:21.640Z,985.91
2018-01-17T02:30:14.626Z,985.94
2018-01-17T02:31:14.561Z,985.93
2018-01-17T02:33:07.658Z,985.84
2018-01-17T02:34:07.598Z,985.87
2018-01-17T02:36:00.561Z,985.83
2018-01-17T02:37:00.489Z,985.81
2018-01-17T02:38:53.501Z,985.78
2018-01-17T02:39:53.419Z,985.75
2018-01-17T02:41:46.443Z,985.78
2018-01-17T02:42:46.388Z,985.81
2018-01-17T02:44:39.390Z,985.84
2018-01-17T02:45:39.457Z,985.83
2018-01-17T02:47:32.293Z,985.90
2018-01-17T02:48:32.230Z,985.91
2018-01-17T02:50:25.219Z,985.92
2018-01-17T02:51:25.140Z,985.89
2018-01-17T02:53:18.271Z,985.88
2018-01-17T02:54:18.059Z,985.95
2018-01-17T02:56:11.051Z,985.91
2018-01-17T02:57:10.982Z,985.90
2018-01-17T02:59:04.026Z,985.94
2018-01-17T03:00:03.899Z,985.97
2018-01-17T03:01:56.928Z,985.94
2018-01-17T03:02:56.907Z,985.93
2018-01-17T03:04:49.828Z,986.00
2018-01-17T03:05:49.760Z,986.01
2018-01-17T03:07:42.817Z,986.07
2018-01-17T03:08:42.767Z,986.02
2018-01-17T03:10:35.728Z,986.00
2018-01-17T03:11:35.724Z,985.94
2018-01-17T03:13:28.705Z,985.93
2018-01-17T03:14:28.670Z,985.91
2018-01-17T03:16:21.633Z,985.86
2018-01-17T03:17:21.585Z,985.84
2018-01-17T03:19:14.587Z,985.88
2018-01-17T03:20:14.512Z,985.89
2018-01-17T03:22:07.509Z,985.80
2018-01-17T03:23:07.434Z,985.81
2018-01-17T03:25:00.453Z,985.83
2018-01-17T03:26:00.386Z,985.85
2018-01-17T03:27:53.479Z,985.78
2018-01-17T03:28:53.340Z,985.76
2018-01-17T03:30:46.360Z,985.76
2018-01-17T03:31:46.281Z,985.79
2018-01-17T03:33:39.267Z,985.77
2018-01-17T03:34:39.197Z,985.68
2018-01-17T03:36:32.218Z,985.68
2018-01-17T03:37:32.136Z,985.69
2018-01-17T03:39:25.211Z,985.68
2018-01-17T03:40:25.145Z,985.70
2018-01-17T03:42:18.262Z,985.71
2018-01-17T03:43:18.115Z,985.74
2018-01-17T03:45:11.107Z,985.72
2018-01-17T03:46:11.037Z,985.74
2018-01-17T03:48:04.101Z,985.74
2018-01-17T03:49:04.023Z,985.76
2018-01-17T03:50:57.042Z,985.70
2018-01-17T03:51:56.958Z,985.72
2018-01-17T03:53:49.973Z,985.67
2018-01-17T03:54:49.891Z,985.66
2018-01-17T03:56:42.938Z,985.62
2018-01-17T03:57:42.805Z,985.63
2018-01-17T03:59:35.790Z,985.67
2018-01-17T04:00:35.722Z,985.68
2018-01-17T04:02:28.757Z,985.62
2018-01-17T04:03:28.684Z,985.68
2018-01-17T04:05:21.638Z,985.68
2018-01-17T04:06:21.564Z,985.65
2018-01-17T04:08:14.561Z,985.71
2018-01-17T04:09:14.484Z,985.71
2018-01-17T04:11:07.489Z,985.69
2018-01-17T04:12:07.435Z,985.74
2018-01-17T04:14:00.409Z,985.75
2018-01-17T04:15:00.332Z,985.72
2018-01-17T04:16:53.379Z,985.73
2018-01-17T04:17:53.294Z,985.71
2018-01-17T04:19:46.301Z,985.74
2018-01-17T04:20:46.227Z,985.78
2018-01-17T04:22:39.227Z,985.77
2018-01-17T04:23:39.146Z,985.77
2018-01-17T04:25:32.137Z,985.74
2018-01-17T04:26:32.066Z,985.77
2018-01-17T04:28:25.119Z,985.79
2018-01-17T04:29:25.006Z,985.75
2018-01-17T04:31:18.004Z,985.79
2018-01-17T04:32:17.933Z,985.81
2018-01-17T04:34:10.933Z,985.76
2018-01-17T04:35:10.855Z,985.74
2018-01-17T04:37:03.858Z,985.75
2018-01-17T04:38:03.826Z,985.72
2018-01-17T04:39:56.781Z,985.80
2018-01-17T04:40:56.712Z,985.77
2018-01-17T04:42:49.690Z,985.82
2018-01-17T04:43:49.627Z,985.81
2018-01-17T04:45:42.655Z,985.79
2018-01-17T04:46:42.565Z,985.80
2018-01-17T04:48:35.601Z,985.74
2018-01-17T04:49:35.530Z,985.82
2018-01-17T04:51:28.547Z,985.83
2018-01-17T04:52:28.476Z,985.83
2018-01-17T04:54:21.467Z,985.78
2018-01-17T04:55:21.385Z,985.75
2018-01-17T04:57:14.399Z,985.75
2018-01-17T04:58:14.335Z,985.75
2018-01-17T05:00:07.342Z,985.77
2018-01-17T05:01:07.257Z,985.83
2018-01-17T05:03:00.279Z,985.82
2018-01-17T05:04:00.271Z,985.81
2018-01-17T05:05:53.251Z,985.77
2018-01-17T05:06:53.149Z,985.80
2018-01-17T05:08:58.882Z,985.84
2018-01-17T05:09:58.805Z,985.82
2018-01-17T05:11:50.805Z,985.77
2018-01-17T05:12:50.715Z,985.78
2018-01-17T05:14:43.885Z,985.76
2018-01-17T05:15:43.800Z,985.76
2018-01-17T05:17:36.892Z,985.74
2018-01-17T05:18:35.706Z,985.75
2018-01-17T05:20:27.744Z,985.76
2018-01-17T05:21:27.702Z,985.76
2018-01-17T05:23:19.914Z,985.81
2018-01-17T05:24:19.835Z,985.79
2018-01-17T05:26:11.842Z,985.77
2018-01-17T05:27:11.758Z,985.78
2018-01-17T05:29:04.022Z,985.71
2018-01-17T05:30:03.959Z,985.76
2018-01-17T05:31:55.962Z,985.68
2018-01-17T05:32:55.888Z,985.70
2018-01-17T05:34:48.044Z,985.75
2018-01-17T05:35:47.900Z,985.75
2018-01-17T05:37:40.399Z,985.75
2018-01-17T05:38:39.916Z,985.73
2018-01-17T05:40:32.013Z,985.73
2018-01-17T05:41:31.948Z,985.72
2018-01-17T05:43:24.066Z,985.69
2018-01-17T05:44:23.985Z,985.67
2018-01-17T05:46:15.976Z,985.71
2018-01-17T05:47:15.895Z,985.71
2018-01-17T05:49:07.876Z,985.76
2018-01-17T05:50:07.803Z,985.76
2018-01-17T05:51:59.801Z,985.76
2018-01-17T05:52:59.715Z,985.78
2018-01-17T05:54:51.705Z,985.79
2018-01-17T05:55:51.635Z,985.80
2018-01-17T05:57:43.899Z,985.77
2018-01-17T05:58:43.588Z,985.78
2018-01-17T06:00:35.565Z,985.74
2018-01-17T06:01:35.497Z,985.73
2018-01-17T06:03:27.767Z,985.73
2018-01-17T06:04:27.641Z,985.73
2018-01-17T06:06:19.633Z,985.72
2018-01-17T06:07:19.565Z,985.73
2018-01-17T06:09:11.561Z,985.71
2018-01-17T06:10:11.476Z,985.70
2018-01-17T06:12:03.498Z,985.67
2018-01-17T06:13:03.459Z,985.68
2018-01-17T06:14:55.446Z,985.67
2018-01-17T06:15:55.377Z,985.68
2018-01-17T06:17:47.385Z,985.65
2018-01-17T06:18:47.307Z,985.68
2018-01-17T06:20:39.298Z,985.69
2018-01-17T06:21:39.229Z,985.70
2018-01-17T06:23:32.475Z,985.70
2018-01-17T06:24:32.397Z,985.67
2018-01-17T06:26:24.436Z,985.72
2018-01-17T06:27:24.387Z,985.75
2018-01-17T06:29:16.417Z,985.75
2018-01-17T06:30:16.328Z,985.72
2018-01-17T06:32:08.314Z,985.74
2018-01-17T06:33:08.263Z,985.78
2018-01-17T06:35:01.260Z,985.85
2018-01-17T06:36:01.174Z,985.91
2018-01-17T06:37:53.219Z,985.91
2018-01-17T06:38:53.149Z,985.94
2018-01-17T06:40:45.260Z,985.95
2018-01-17T06:41:45.181Z,985.98
2018-01-17T06:43:37.206Z,986.04
2018-01-17T06:44:37.095Z,986.02
2018-01-17T06:46:29.089Z,986.03
2018-01-17T06:47:29.002Z,986.08
2018-01-17T06:49:21.099Z,986.11
2018-01-17T06:50:20.974Z,986.05
2018-01-17T06:52:12.992Z,986.06
2018-01-17T06:53:12.936Z,986.03
2018-01-17T06:55:04.927Z,986.07
2018-01-17T06:56:04.844Z,986.09
2018-01-17T06:57:56.921Z,986.11
2018-01-17T06:58:56.744Z,986.10
2018-01-17T07:00:48.865Z,986.15
2018-01-17T07:01:48.777Z,986.15
2018-01-17T07:03:40.933Z,986.16
2018-01-17T07:04:40.853Z,986.18
2018-01-17T07:06:32.865Z,986.19
2018-01-17T07:07:32.801Z,986.16
2018-01-17T07:09:25.880Z,986.16
2018-01-17T07:10:25.814Z,986.18
2018-01-17T07:12:17.819Z,986.17
2018-01-17T07:13:17.969Z,986.16
2018-01-17T07:15:09.755Z,986.22
2018-01-17T07:16:09.655Z,986.19
2018-01-17T07:18:01.818Z,986.13
2018-01-17T07:19:01.734Z,986.20
2018-01-17T07:20:53.748Z,986.25
2018-01-17T07:21:53.689Z,986.24
2018-01-17T07:23:46.764Z,986.21
2018-01-17T07:24:46.695Z,986.25
2018-01-17T07:26:38.884Z,986.28
2018-01-17T07:27:38.910Z,986.31
2018-01-17T07:29:30.902Z,986.27
2018-01-17T07:30:30.842Z,986.32
2018-01-17T07:32:23.006Z,986.36
2018-01-17T07:33:22.894Z,986.32
2018-01-17T07:35:14.894Z,986.34
2018-01-17T07:36:14.819Z,986.39
2018-01-17T07:38:07.905Z,986.36
2018-01-17T07:39:07.789Z,986.36
2018-01-17T07:40:59.799Z,986.38
2018-01-17T07:41:59.757Z,986.36
2018-01-17T07:43:52.706Z,986.37
2018-01-17T07:44:52.635Z,986.35
2018-01-17T07:46:44.628Z,986.39
2018-01-17T07:47:44.548Z,986.40
2018-01-17T07:49:36.641Z,986.46
2018-01-17T07:50:36.568Z,986.51
2018-01-17T07:52:28.574Z,986.49
2018-01-17T07:53:28.479Z,986.49
2018-01-17T07:55:20.471Z,986.50
2018-01-17T07:56:20.405Z,986.51
2018-01-17T07:58:12.419Z,986.49
2018-01-17T07:59:12.338Z,986.54
2018-01-17T08:01:04.327Z,986.48
2018-01-17T08:02:04.272Z,986.48
2018-01-17T08:03:56.261Z,986.51
2018-01-17T08:04:56.169Z,986.55
2018-01-17T08:06:48.273Z,986.50
2018-01-17T08:07:48.220Z,986.53
2018-01-17T08:09:40.184Z,986.55
2018-01-17T08:10:40.110Z,986.56
2018-01-17T08:12:32.124Z,986.55
2018-01-17T08:13:32.019Z,986.57
2018-01-17T08:15:23.998Z,986.60
2018-01-17T08:16:23.924Z,986.58
2018-01-17T08:18:15.949Z,986.65
2018-01-17T08:19:15.869Z,986.66
2018-01-17T08:21:07.913Z,986.71
2018-01-17T08:22:07.776Z,986.67
2018-01-17T08:23:59.786Z,986.70
2018-01-17T08:24:59.703Z,986.68
2018-01-17T08:26:51.718Z,986.66
2018-01-17T08:27:51.638Z,986.69
2018-01-17T08:29:43.660Z,986.72
2018-01-17T08:30:43.570Z,986.78
2018-01-17T08:32:35.610Z,986.77
2018-01-17T08:33:35.529Z,986.78
2018-01-17T08:35:27.637Z,986.81
2018-01-17T08:36:27.561Z,986.86
2018-01-17T08:38:19.629Z,986.84
2018-01-17T08:39:19.510Z,986.88
2018-01-17T08:41:11.523Z,986.86
2018-01-17T08:42:11.452Z,986.82
2018-01-17T08:44:03.456Z,986.87
2018-01-17T08:45:03.373Z,986.87
2018-01-17T08:46:55.361Z,986.82
2018-01-17T08:47:55.385Z,986.84
2018-01-17T08:49:47.306Z,986.86
2018-01-17T08:50:47.237Z,986.86
2018-01-17T08:52:39.231Z,986.89
2018-01-17T08:53:39.153Z,986.88
2018-01-17T08:55:31.151Z,986.90
2018-01-17T08:56:31.070Z,986.94
2018-01-17T08:58:24.161Z,986.97
2018-01-17T08:59:23.990Z,987.00
2018-01-17T09:01:15.974Z,987.06
2018-01-17T09:02:15.907Z,987.08
2018-01-17T09:04:07.897Z,987.09
2018-01-17T09:05:07.821Z,987.10
2018-01-17T09:06:59.813Z,987.14
2018-01-17T09:07:59.740Z,987.16
2018-01-17T09:09:51.753Z,987.15
2018-01-17T09:10:51.676Z,987.21
2018-01-17T09:12:43.743Z,987.20
2018-01-17T09:13:43.661Z,987.18
2018-01-17T09:15:35.692Z,987.27
2018-01-17T09:16:35.602Z,987.19
2018-01-17T09:18:27.625Z,987.27
2018-01-17T09:19:27.553Z,987.32
2018-01-17T09:21:19.546Z,987.41
2018-01-17T09:22:19.467Z,987.41
2018-01-17T09:24:11.528Z,987.45
2018-01-17T09:25:11.461Z,987.50
2018-01-17T09:27:03.462Z,987.50
2018-01-17T09:28:03.381Z,987.56
2018-01-17T09:29:55.452Z,987.58
2018-01-17T09:30:55.365Z,987.62
2018-01-17T09:32:47.298Z,987.67
2018-01-17T09:33:47.226Z,987.67
2018-01-17T09:35:39.242Z,987.72
2018-01-17T09:36:39.162Z,987.76
2018-01-17T09:38:31.148Z,987.80
2018-01-17T09:39:31.070Z,987.81
2018-01-17T09:41:23.065Z,987.78
2018-01-17T09:42:22.988Z,987.83
2018-01-17T09:44:14.996Z,987.88
2018-01-17T09:45:14.923Z,987.96
2018-01-17T09:47:06.986Z,987.92
2018-01-17T09:48:06.874Z,987.88
2018-01-17T09:49:59.013Z,987.95
2018-01-17T09:50:58.890Z,987.99
2018-01-17T09:52:50.921Z,987.97
2018-01-17T09:53:50.834Z,988.00
2018-01-17T09:55:42.832Z,988.01
2018-01-17T09:56:42.755Z,988.00
2018-01-17T09:58:34.746Z,987.99
2018-01-17T09:59:34.674Z,988.02
2018-01-17T10:01:26.668Z,988.03
2018-01-17T10:02:26.590Z,988.04
2018-01-17T10:04:18.689Z,988.07
2018-01-17T10:05:18.615Z,988.10
2018-01-17T10:07:10.621Z,988.07
2018-01-17T10:08:10.538Z,988.09
2018-01-17T10:10:03.543Z,988.16
2018-01-17T10:11:03.532Z,988.12
2018-01-17T10:12:56.565Z,988.15
2018-01-17T10:13:56.534Z,988.10
2018-01-17T10:15:49.477Z,988.15
2018-01-17T10:16:49.370Z,988.13
2018-01-17T10:18:42.387Z,988.11
2018-01-17T10:19:42.313Z,988.13
2018-01-17T10:21:35.349Z,988.15
2018-01-17T10:22:35.250Z,988.20
2018-01-17T10:24:28.302Z,988.16
2018-01-17T10:25:28.201Z,988.17
2018-01-17T10:27:21.206Z,988.15
2018-01-17T10:28:21.126Z,988.23
2018-01-17T10:30:14.236Z,988.23
2018-01-17T10:31:14.087Z,988.25
2018-01-17T10:33:07.076Z,988.22
2018-01-17T10:34:06.994Z,988.29
2018-01-17T10:35:59.994Z,988.28
2018-01-17T10:36:59.921Z,988.31
2018-01-17T10:38:51.970Z,988.35
2018-01-17T10:39:51.888Z,988.36
2018-01-17T10:41:44.895Z,988.38
2018-01-17T10:42:44.851Z,988.33
2018-01-17T10:44:37.865Z,988.42
2018-01-17T10:45:37.794Z,988.43
2018-01-17T10:47:30.853Z,988.42
2018-01-17T10:48:30.746Z,988.33
2018-01-17T10:50:23.633Z,988.47
2018-01-17T10:51:22.632Z,988.42
2018-01-17T10:53:15.770Z,988.48
2018-01-17T10:54:15.709Z,988.45
2018-01-17T10:56:08.685Z,988.48
2018-01-17T10:57:08.610Z,988.46
2018-01-17T10:59:01.635Z,988.44
2018-01-17T11:00:01.546Z,988.42
2018-01-17T11:01:54.548Z,988.51
2018-01-17T11:02:54.481Z,988.54
2018-01-17T11:04:47.622Z,988.48
2018-01-17T11:05:47.550Z,988.50
2018-01-17T11:07:40.676Z,988.50
2018-01-17T11:08:40.524Z,988.58
2018-01-17T11:10:32.633Z,988.54
2018-01-17T11:11:32.575Z,988.55
2018-01-17T11:13:25.560Z,988.61
2018-01-17T11:14:25.477Z,988.58
2018-01-17T11:16:18.469Z,988.57
2018-01-17T11:17:18.409Z,988.63
2018-01-17T11:19:11.460Z,988.68
2018-01-17T11:20:11.361Z,988.60
2018-01-17T11:22:04.386Z,988.62
2018-01-17T11:23:04.297Z,988.53
2018-01-17T11:24:57.312Z,988.54
2018-01-17T11:25:57.230Z,988.58
2018-01-17T11:27:50.296Z,988.62
2018-01-17T11:28:50.195Z,988.64
2018-01-17T11:30:43.213Z,988.64
2018-01-17T11:31:43.137Z,988.63
2018-01-17T11:33:36.140Z,988.67
2018-01-17T11:34:36.064Z,988.64
2018-01-17T11:36:29.058Z,988.64
2018-01-17T11:37:28.997Z,988.75
2018-01-17T11:39:22.015Z,988.74
2018-01-17T11:40:21.923Z,988.78
2018-01-17T11:42:14.922Z,988.73
2018-01-17T11:43:14.855Z,988.75
2018-01-17T11:45:08.035Z,988.82
2018-01-17T11:46:07.955Z,988.79
2018-01-17T11:48:00.957Z,988.83
2018-01-17T11:49:00.877Z,988.82
2018-01-17T11:50:54.269Z,988.85
2018-01-17T11:51:54.119Z,988.86
2018-01-17T11:53:46.911Z,988.87
2018-01-17T11:54:46.802Z,988.89
2018-01-17T11:56:39.849Z,988.91
2018-01-17T11:57:39.764Z,988.93
2018-01-17T11:59:33.010Z,988.95
2018-01-17T12:00:32.833Z,988.99
2018-01-17T12:02:25.832Z,988.98
2018-01-17T12:03:25.765Z,988.97
2018-01-17T12:05:18.807Z,988.93
2018-01-17T12:06:19.164Z,988.99
2018-01-17T12:08:12.041Z,988.98
2018-01-17T12:09:11.949Z,988.96
2018-01-17T12:11:05.034Z,988.91
2018-01-17T12:12:05.192Z,988.90
2018-01-17T12:13:57.986Z,988.95
2018-01-17T12:14:57.912Z,988.95
2018-01-17T12:16:50.938Z,988.93
2018-01-17T12:17:50.865Z,988.94
2018-01-17T12:19:42.894Z,988.94
2018-01-17T12:20:42.798Z,988.96
2018-01-17T12:22:35.048Z,988.94
2018-01-17T12:23:34.979Z,988.99
2018-01-17T12:25:27.046Z,988.96
2018-01-17T12:26:27.001Z,988.95
2018-01-17T12:28:18.996Z,988.91
2018-01-17T12:29:18.912Z,989.01
2018-01-17T12:31:11.956Z,989.02
2018-01-17T12:32:11.900Z,989.05
2018-01-17T12:34:04.060Z,989.00
2018-01-17T12:35:03.951Z,988.99
2018-01-17T12:36:56.061Z,989.00
2018-01-17T12:37:55.983Z,988.95
2018-01-17T12:39:47.990Z,989.01
2018-01-17T12:40:47.927Z,989.03
2018-01-17T12:42:39.991Z,989.03
2018-01-17T12:43:39.895Z,989.04
2018-01-17T12:45:31.998Z,989.13
2018-01-17T12:46:31.917Z,989.12
2018-01-17T12:48:24.999Z,989.16
2018-01-17T12:49:24.880Z,989.16
2018-01-17T12:51:16.939Z,989.23
2018-01-17T12:52:16.812Z,989.24
2018-01-17T12:54:08.956Z,989.26
2018-01-17T12:55:08.853Z,989.31
2018-01-17T12:57:01.035Z,989.31
2018-01-17T12:58:00.880Z,989.32
2018-01-17T12:59:53.052Z,989.32
2018-01-17T13:00:52.848Z,989.34
2018-01-17T13:02:44.873Z,989.39
2018-01-17T13:03:44.907Z,989.45
2018-01-17T13:05:36.822Z,989.47
2018-01-17T13:06:36.724Z,989.52
2018-01-17T13:08:28.788Z,989.57
2018-01-17T13:09:28.794Z,989.51
2018-01-17T13:11:20.683Z,989.57
2018-01-17T13:12:20.654Z,989.53
2018-01-17T13:14:13.731Z,989.60
2018-01-17T13:15:13.610Z,989.70
2018-01-17T13:17:05.574Z,989.61
2018-01-17T13:18:05.592Z,989.62
2018-01-17T13:19:57.600Z,989.76
2018-01-17T13:20:57.466Z,989.81
2018-01-17T13:22:49.598Z,989.87
2018-01-17T13:23:49.543Z,989.88
2018-01-17T13:25:41.740Z,989.86
2018-01-17T13:26:41.828Z,989.79
2018-01-17T13:28:34.680Z,989.96
2018-01-17T13:29:34.589Z,989.82
2018-01-17T13:31:27.673Z,989.90
2018-01-17T13:32:27.615Z,989.95
2018-01-17T13:34:19.575Z,990.07
2018-01-17T13:35:19.507Z,990.03
2018-01-17T13:37:11.602Z,990.09
2018-01-17T13:38:11.565Z,990.07
2018-01-17T13:40:04.569Z,990.14
2018-01-17T13:41:04.509Z,990.14
2018-01-17T13:42:56.646Z,990.10
2018-01-17T13:43:56.572Z,990.16
2018-01-17T13:45:48.754Z,990.14
2018-01-17T13:46:48.627Z,990.19
2018-01-17T13:48:41.648Z,990.19
2018-01-17T13:49:41.602Z,990.21
2018-01-17T13:51:33.610Z,990.22
2018-01-17T13:52:33.536Z,990.33
2018-01-17T13:54:26.682Z,990.26
2018-01-17T13:55:26.559Z,990.29
2018-01-17T13:57:19.578Z,990.37
2018-01-17T13:58:19.482Z,990.30
2018-01-17T14:00:12.658Z,990.34
2018-01-17T14:01:12.566Z,990.43
2018-01-17T14:03:05.770Z,990.41
2018-01-17T14:04:05.711Z,990.39
2018-01-17T14:05:58.750Z,990.51
2018-01-17T14:06:58.682Z,990.47
2018-01-17T14:08:51.683Z,990.58
2018-01-17T14:09:51.601Z,990.56
2018-01-17T14:11:44.666Z,990.53
2018-01-17T14:12:44.517Z,990.56
2018-01-17T14:14:37.611Z,990.55
2018-01-17T14:15:37.548Z,990.65
2018-01-17T14:17:30.645Z,990.59
2018-01-17T14:18:30.604Z,990.70
2018-01-17T14:20:23.587Z,990.74
2018-01-17T14:21:23.539Z,990.67
2018-01-17T14:23:16.671Z,990.79
2018-01-17T14:24:16.587Z,990.84
2018-01-17T14:26:09.640Z,990.86
2018-01-17T14:27:09.575Z,990.89
2018-01-17T14:29:02.567Z,990.89
2018-01-17T14:30:02.492Z,990.93
2018-01-17T14:31:55.572Z,991.03
2018-01-17T14:32:55.469Z,991.05
2018-01-17T14:34:48.481Z,991.12
2018-01-17T14:35:48.393Z,991.13
2018-01-17T14:37:41.403Z,991.14
2018-01-17T14:38:41.320Z,991.16
2018-01-17T14:40:34.379Z,991.22
2018-01-17T14:41:34.306Z,991.18
2018-01-17T14:43:27.409Z,991.27
2018-01-17T14:44:27.325Z,991.25
2018-01-17T14:46:20.378Z,991.24
2018-01-17T14:47:20.483Z,991.26
2018-01-17T14:49:13.337Z,991.28
2018-01-17T14:50:13.248Z,991.33
2018-01-17T14:52:06.265Z,991.37
2018-01-17T14:53:06.206Z,991.38
2018-01-17T14:54:59.202Z,991.38
2018-01-17T14:55:59.138Z,991.48
2018-01-17T14:57:52.170Z,991.46
2018-01-17T14:58:52.064Z,991.44
2018-01-17T15:00:45.118Z,991.47
2018-01-17T15:01:45.035Z,991.45
2018-01-17T15:03:38.050Z,991.52
2018-01-17T15:04:37.975Z,991.52
2018-01-17T15:06:29.997Z,991.58
2018-01-17T15:07:29.955Z,991.60
2018-01-17T15:09:21.992Z,991.76
2018-01-17T15:10:21.901Z,991.65
2018-01-17T15:12:14.862Z,991.72
2018-01-17T15:13:14.792Z,991.74
2018-01-17T15:15:07.883Z,991.78
2018-01-17T15:16:07.796Z,991.77
2018-01-17T15:18:00.925Z,991.77
2018-01-17T15:19:00.769Z,991.82
2018-01-17T15:20:52.848Z,991.84
2018-01-17T15:21:52.733Z,991.83
2018-01-17T15:23:44.938Z,991.83
2018-01-17T15:24:44.861Z,991.86
2018-01-17T15:26:36.910Z,991.80
2018-01-17T15:27:36.842Z,991.88
2018-01-17T15:29:28.887Z,991.82
2018-01-17T15:30:28.773Z,991.82
2018-01-17T15:32:21.893Z,991.94
2018-01-17T15:33:21.762Z,991.99
2018-01-17T15:35:13.968Z,992.06
2018-01-17T15:36:13.844Z,992.01
2018-01-17T15:38:06.901Z,991.99
2018-01-17T15:39:06.790Z,992.02
2018-01-17T15:40:58.807Z,992.09
2018-01-17T15:41:58.761Z,992.03
2018-01-17T15:43:50.833Z,992.07
2018-01-17T15:44:50.766Z,992.06
2018-01-17T15:46:43.836Z,992.13
2018-01-17T15:47:43.730Z,992.10
2018-01-17T15:49:35.709Z,992.16
2018-01-17T15:50:35.620Z,992.19
2018-01-17T15:52:28.774Z,992.16
2018-01-17T15:53:28.567Z,992.17
2018-01-17T15:55:21.572Z,992.19
2018-01-17T15:56:21.492Z,992.21
2018-01-17T15:58:14.512Z,992.32
2018-01-17T15:59:14.459Z,992.30
2018-01-17T16:01:07.563Z,992.31
2018-01-17T16:02:07.487Z,992.33
2018-01-17T16:03:59.568Z,992.34
2018-01-17T16:04:59.453Z,992.39
2018-01-17T16:06:52.461Z,992.41
2018-01-17T16:07:52.386Z,992.48
2018-01-17T16:09:44.450Z,992.46
2018-01-17T16:10:44.353Z,992.49
2018-01-17T16:12:37.364Z,992.51
2018-01-17T16:13:37.305Z,992.49
2018-01-17T16:15:29.321Z,992.50
2018-01-17T16:16:29.283Z,992.51
2018-01-17T16:18:22.248Z,992.55
2018-01-17T16:19:22.195Z,992.57
2018-01-17T16:21:15.265Z,992.65
2018-01-17T16:22:15.136Z,992.63
2018-01-17T16:24:08.135Z,992.67
2018-01-17T16:25:08.099Z,992.65
2018-01-17T16:27:00.074Z,992.65
2018-01-17T16:27:59.998Z,992.67
2018-01-17T16:29:51.981Z,992.70
2018-01-17T16:30:51.945Z,992.71
2018-01-17T16:32:43.997Z,992.74
2018-01-17T16:33:43.900Z,992.76
2018-01-17T16:35:36.057Z,992.79
2018-01-17T16:36:35.982Z,992.74
2018-01-17T16:38:28.120Z,992.73
2018-01-17T16:39:28.055Z,992.73
2018-01-17T16:41:21.060Z,992.69
2018-01-17T16:42:20.970Z,992.69
2018-01-17T16:44:14.000Z,992.76
2018-01-17T16:45:13.957Z,992.72
2018-01-17T16:47:06.939Z,992.72
2018-01-17T16:48:06.859Z,992.77
2018-01-17T16:49:59.859Z,992.78
2018-01-17T16:50:59.783Z,992.78
2018-01-17T16:52:51.873Z,992.84
2018-01-17T16:53:51.783Z,992.80
2018-01-17T16:55:43.952Z,992.74
2018-01-17T16:56:43.870Z,992.87
2018-01-17T16:58:36.021Z,992.88
2018-01-17T16:59:35.860Z,992.88
2018-01-17T17:01:27.854Z,992.85
2018-01-17T17:02:27.802Z,992.91
2018-01-17T17:04:19.886Z,992.88
2018-01-17T17:05:19.758Z,992.87
2018-01-17T17:07:11.778Z,992.86
2018-01-17T17:08:11.686Z,992.85
2018-01-17T17:10:03.798Z,992.88
2018-01-17T17:11:03.615Z,992.85
2018-01-17T17:12:55.776Z,992.85
2018-01-17T17:13:55.696Z,992.91
2018-01-17T17:15:47.651Z,992.89
2018-01-17T17:16:47.606Z,992.89
2018-01-17T17:18:39.719Z,992.78
2018-01-17T17:19:39.607Z,992.86
2018-01-17T17:21:31.641Z,992.96
2018-01-17T17:22:31.539Z,992.99
2018-01-17T17:24:23.747Z,992.97
2018-01-17T17:25:23.648Z,992.98
2018-01-17T17:27:15.750Z,992.89
2018-01-17T17:28:15.636Z,993.02
2018-01-17T17:30:07.713Z,992.95
2018-01-17T17:31:07.719Z,993.00
2018-01-17T17:32:59.629Z,993.03
2018-01-17T17:33:59.560Z,993.06
2018-01-17T17:35:51.611Z,993.09
2018-01-17T17:36:51.523Z,993.07
2018-01-17T17:38:43.556Z,993.13
2018-01-17T17:39:43.462Z,993.11
2018-01-17T17:41:35.613Z,993.09
2018-01-17T17:42:35.633Z,993.13
2018-01-17T17:44:27.603Z,993.11
2018-01-17T17:45:27.473Z,993.11
2018-01-17T17:47:20.475Z,993.18
2018-01-17T17:48:20.412Z,993.26
2018-01-17T17:50:12.448Z,993.29
2018-01-17T17:51:12.364Z,993.38
2018-01-17T17:53:04.417Z,993.35
2018-01-17T17:54:04.322Z,993.37
2018-01-17T17:55:56.416Z,993.39